• Join FlightAware (Why Join?)
  • Login
  • US Flag 
10:28PM EDT


 

Airport Tracker/Info


-or-


 

Live Flight TrackerFlight Track Log ✈ UPS1111 ✈ 03-Jul-2013 ✈ KJFK - KSDF

Flight Track Log - Related Links

Times and Time Zones

All times are in EDT time to prevent confusion due to time zone crossing. See the UPS1111 flight status page for this flight to view local times or setup timezone preferences in your user account.

Time Position Orientation Groundspeed Altitude Reporting Facility
EDT Latitude Longitude Course Direction KTS MPH feet Rate Location/Type
10:57PM 40.6540 -73.7980 180° South 31 36  Level FlightAware
10:57PM 40.6520 -73.7970 159° South 32 37 60 Level FlightAware
10:58PM 40.6500 -73.7980 201° Southwest 33 38 60 Level FlightAware
10:58PM 40.6490 -73.7980 180° South 16 18 60 Level FlightAware
10:59PM 40.6460 -73.7960 153° Southeast 18 21 60 Level FlightAware
10:59PM 40.6440 -73.7960 180° South 19 22 60 Level FlightAware
11:00PM 40.6410 -73.7960 180° South 20 23 60 Level FlightAware
11:00PM 40.6390 -73.7940 143° Southeast 23 26 60 Level FlightAware
11:01PM 40.6380 -73.7900 108° East 24 28 120 Level FlightAware
11:01PM 40.6370 -73.7880 123° Southeast 18 21 120 Level FlightAware
11:01PM 40.6350 -73.7850 131° Southeast 22 25 120 Level FlightAware
11:02PM 40.6340 -73.7820 114° Southeast 24 28 180 Level FlightAware
11:02PM 40.6330 -73.7830 217° Southwest 24 28 240 Level FlightAware
11:03PM 40.6350 -73.7860 311° West 70 81 360 Level FlightAware
11:03PM 40.6450 -73.8080 301° West 155 178 400 1,560 Climbing FlightAware
11:04PM 40.6510 -73.8260 294° West 155 178 1,400 2,040 Climbing FlightAware
11:04PM 40.6430 -73.8460 242° Southwest 187 215 1,900 1,380 Climbing FlightAware
11:04PM 40.6350 -73.8570 226° Southwest 205 236 2,200 2,520 Climbing FlightAware
11:05PM 40.6190 -73.8840 232° Southwest 211 243 3,600 3,000 Climbing FlightAware
11:05PM 40.6070 -73.8990 224° Southwest 227 261 4,400 2,460 Climbing FlightAware
11:05PM 40.5940 -73.9100 213° Southwest 247 284 4,800 2,580 Climbing FlightAware
11:06PM 40.5668 -73.9316 211° Southwest 256 295 6,200 3,180 Climbing FlightAware ADS-B
11:06PM 40.5487 -73.9464 212° Southwest 258 297 7,200 3,360 Climbing FlightAware ADS-B
11:06PM 40.5412 -73.9527 213° Southwest 262 302 7,600 3,000 Climbing FlightAware ADS-B
11:06PM 40.5240 -73.9674 213° Southwest 267 307 8,400 3,000 Climbing FlightAware ADS-B
11:07PM 40.5080 -73.9808 212° Southwest 270 311 9,200 3,000 Climbing FlightAware ADS-B
11:07PM 40.5010 -73.9871 214° Southwest 272 313 9,500 3,300 Climbing FlightAware ADS-B
11:07PM 40.4979 -73.9903 218° Southwest 272 313 9,700 3,000 Climbing FlightAware ADS-B
11:07PM 40.4938 -73.9956 225° Southwest 273 314 9,900 2,220 Climbing FlightAware ADS-B
11:07PM 40.4912 -73.9995 229° Southwest 274 315 10,000 2,100 Climbing FlightAware ADS-B
11:07PM 40.4821 -74.0141 231° Southwest 279 321 10,400 1,500 Climbing FlightAware ADS-B
11:07PM 40.4693 -74.0359 232° Southwest 279 321 10,700 1,260 Climbing FlightAware ADS-B
11:08PM 40.4435 -74.0804 233° Southwest 316 364 11,400 1,920 Climbing FlightAware ADS-B
11:08PM 40.4147 -74.1288 232° Southwest 345 397 12,700 3,000 Climbing FlightAware ADS-B
11:09PM 40.3856 -74.1800 233° Southwest 355 409 14,500 3,420 Climbing FlightAware ADS-B
11:09PM 40.3546 -74.2344 233° Southwest 369 425 16,200 2,460 Climbing FlightAware ADS-B
11:10PM 40.3278 -74.2806 233° Southwest 375 432 16,800 1,620 Climbing FlightAware ADS-B
11:10PM 40.3206 -74.2947 236° Southwest 374 430 17,100 2,400 Climbing FlightAware ADS-B
11:10PM 40.3152 -74.3081 242° Southwest 374 430 17,400 2,700 Climbing FlightAware ADS-B
11:10PM 40.3126 -74.3173 250° West 377 434 17,600 2,640 Climbing FlightAware ADS-B
11:10PM 40.3102 -74.3289 255° West 381 438 17,800 2,760 Climbing FlightAware ADS-B
11:10PM 40.3082 -74.3480 262° West 385 443 18,200 3,180 Climbing FlightAware ADS-B
11:11PM 40.3050 -74.3994 265° West 393 452 19,400 3,000 Climbing FlightAware ADS-B
11:11PM 40.2988 -74.4513 261° West 399 459 20,400 2,520 Climbing FlightAware ADS-B
11:12PM 40.2854 -74.5298 257° West 407 468 21,800 1,680 Climbing FlightAware ADS-B
11:12PM 40.2776 -74.5853 260° West 414 476 22,000 1,260 Climbing FlightAware ADS-B
11:13PM 40.2695 -74.6597 262° West 405 466 22,900 1,920 Climbing FlightAware ADS-B
11:13PM 40.2610 -74.7320 261° West 415 478 24,000 2,220 Climbing FlightAware
11:13PM 40.2584 -74.7494 259° West 414 476 24,300 2,280 Climbing FlightAware ADS-B
11:14PM 40.2482 -74.8313 261° West 427 491 25,500 1,980 Climbing FlightAware ADS-B
11:14PM 40.2417 -74.8845 261° West 436 502 26,100 1,740 Climbing FlightAware ADS-B
11:14PM 40.2405 -74.9025 265° West 440 506 26,300 1,980 Climbing FlightAware ADS-B
11:14PM 40.2411 -74.9391 271° West 444 511 26,800 2,040 Climbing FlightAware ADS-B
11:15PM 40.2491 -75.0200 277° West 454 522 27,800 1,980 Climbing FlightAware ADS-B
11:15PM 40.2503 -75.0378 275° West 455 524 28,000 1,680 Climbing FlightAware ADS-B
11:15PM 40.2484 -75.1075 268° West 460 529 28,700 1,620 Climbing FlightAware ADS-B
11:16PM 40.2433 -75.1663 264° West 465 535 29,300 2,040 Climbing FlightAware ADS-B
11:16PM 40.2308 -75.2521 259° West 463 533 30,500 2,640 Climbing FlightAware ADS-B
11:17PM 40.2188 -75.3338 259° West 451 519 32,000 2,700 Climbing FlightAware ADS-B
11:17PM 40.2067 -75.4116 259° West 445 512 33,200 2,220 Climbing FlightAware ADS-B
11:18PM 40.1943 -75.4708 255° West 441 507 34,000 2,040 Climbing FlightAware ADS-B
11:18PM 40.1843 -75.5089 251° West 439 505 34,500 1,860 Climbing FlightAware ADS-B
11:18PM 40.1593 -75.5872 247° West 436 502 35,500 1,380 Climbing FlightAware ADS-B
11:19PM 40.1353 -75.6612 247° West 431 496 36,000 480 Climbing FlightAware ADS-B
11:19PM 40.1115 -75.7335 247° West 428 493 36,000  Level FlightAware ADS-B
11:20PM 40.0864 -75.8085 246° West 427 491 36,000  Level FlightAware ADS-B
11:20PM 40.0625 -75.8798 246° West 429 494 36,000  Level FlightAware ADS-B
11:21PM 40.0386 -75.9512 246° West 431 496 36,000  Level FlightAware ADS-B
11:21PM 40.0140 -76.0238 246° West 434 499 36,000  Level FlightAware ADS-B
11:22PM 39.9890 -76.0979 246° West 436 502 36,000  Level FlightAware ADS-B
11:23PM 39.9640 -76.1716 246° West 438 504 36,000  Level FlightAware ADS-B
11:23PM 39.9393 -76.2447 246° West 441 507 36,000  Level FlightAware ADS-B
11:24PM 39.9134 -76.3209 246° West 443 510 36,000  Level FlightAware ADS-B
11:24PM 39.8882 -76.3948 246° West 444 511 36,000  Level FlightAware ADS-B
11:25PM 39.8627 -76.4701 246° West 445 512 36,000  Level FlightAware ADS-B
11:25PM 39.8378 -76.5438 246° West 446 513 36,000  Level FlightAware ADS-B
11:26PM 39.8124 -76.6188 246° West 447 514 36,000  Level FlightAware ADS-B
11:26PM 39.7870 -76.6935 246° West 448 516 36,000  Level FlightAware ADS-B
11:27PM 39.7612 -76.7692 246° West 449 517 36,000  Level FlightAware ADS-B
11:27PM 39.7360 -76.8430 246° West 449 517 36,000  Level FlightAware ADS-B
11:28PM 39.7106 -76.9169 246° West 447 514 36,000  Level FlightAware ADS-B
11:28PM 39.6853 -76.9903 246° West 446 513 36,000  Level FlightAware ADS-B
11:29PM 39.6595 -77.0654 246° West 446 513 36,000  Level FlightAware ADS-B
11:29PM 39.6341 -77.1387 246° West 445 512 36,000  Level FlightAware ADS-B
11:30PM 39.6086 -77.2124 246° West 445 512 36,000  Level FlightAware ADS-B
11:30PM 39.5831 -77.2857 246° West 444 511 36,000  Level FlightAware ADS-B
11:31PM 39.5571 -77.3604 246° West 444 511 36,000  Level FlightAware ADS-B
11:31PM 39.5311 -77.4347 246° West 444 511 36,000  Level FlightAware ADS-B
11:32PM 39.5045 -77.5109 246° West 443 510 36,000  Level FlightAware ADS-B
11:32PM 39.4788 -77.5842 246° West 443 510 36,000  Level FlightAware ADS-B
11:33PM 39.4533 -77.6564 245° Southwest 443 510 36,000  Level FlightAware ADS-B
11:33PM 39.4274 -77.7301 246° West 443 510 36,000  Level FlightAware ADS-B
11:34PM 39.4018 -77.8024 245° Southwest 442 509 36,000  Level FlightAware ADS-B
11:34PM 39.3813 -77.8553 243° Southwest 441 507 36,000  Level FlightAware ADS-B
11:35PM 39.3539 -77.9264 244° Southwest 440 506 36,000  Level FlightAware ADS-B
11:35PM 39.3269 -77.9966 244° Southwest 439 505 36,000  Level FlightAware ADS-B
11:36PM 39.2991 -78.0677 243° Southwest 439 505 36,000  Level FlightAware ADS-B
11:36PM 39.2712 -78.1376 243° Southwest 438 504 36,000  Level FlightAware ADS-B
11:37PM 39.2250 -78.2525 243° Southwest 438 504 36,000  Level FlightAware ADS-B
11:38PM 39.1850 -78.3510 242° Southwest 436 502 36,000  Level FlightAware
11:38PM 39.1480 -78.4430 243° Southwest 435 501 36,000  Level FlightAware
11:39PM 39.1110 -78.5360 243° Southwest 435 501 36,000  Level FlightAware
11:40PM 39.0680 -78.6400 242° Southwest 436 502 36,000  Level FlightAware
11:40PM 39.0330 -78.7270 243° Southwest 436 502 36,000  Level FlightAware
11:41PM 38.9990 -78.8100 242° Southwest 437 503 36,000  Level FlightAware
11:42PM 38.9560 -78.9170 243° Southwest 437 503 36,000  Level FlightAware
11:42PM 38.9170 -79.0110 242° Southwest 439 505 36,000  Level FlightAware
11:43PM 38.8770 -79.1080 242° Southwest 439 505 36,000  Level FlightAware
11:44PM 38.8420 -79.2030 245° Southwest 443 510 36,000  Level FlightAware
11:44PM 38.8210 -79.3020 255° West 446 513 36,000  Level FlightAware
11:45PM 38.8000 -79.4210 257° West 445 512 36,000  Level FlightAware
11:46PM 38.7830 -79.5150 257° West 443 510 36,000  Level FlightAware
11:46PM 38.7670 -79.6040 257° West 441 507 36,000  Level FlightAware
11:47PM 38.7470 -79.7130 257° West 439 505 36,000  Level FlightAware
11:48PM 38.7290 -79.8100 257° West 438 504 36,000  Level FlightAware
11:49PM 38.7090 -79.9210 257° West 437 503 36,000  Level FlightAware
11:49PM 38.6900 -80.0220 256° West 437 503 36,000  Level FlightAware
11:50PM 38.6700 -80.1260 256° West 437 503 36,000  Level FlightAware
11:51PM 38.6500 -80.2330 257° West 435 501 36,000  Level FlightAware
11:51PM 38.6310 -80.3350 257° West 435 501 36,000  Level FlightAware
11:52PM 38.6120 -80.4370 257° West 436 502 36,000  Level FlightAware
11:53PM 38.5910 -80.5440 256° West 438 504 36,000  Level FlightAware
11:53PM 38.5740 -80.6350 257° West 439 505 36,000  Level FlightAware
11:54PM 38.5540 -80.7390 256° West 439 505 36,000  Level FlightAware
11:55PM 38.5320 -80.8500 256° West 439 505 36,000  Level FlightAware
11:55PM 38.5160 -80.9360 257° West 438 504 36,000  Level FlightAware
11:56PM 38.4960 -81.0350 256° West 438 504 36,000  Level FlightAware
11:57PM 38.4750 -81.1410 256° West 438 504 36,000  Level FlightAware
11:57PM 38.4530 -81.2540 256° West 438 504 36,000  Level FlightAware
11:58PM 38.4350 -81.3450 256° West 437 503 36,000  Level FlightAware
11:59PM 38.4120 -81.4590 256° West 436 502 36,000  Level FlightAware
11:59PM 38.3910 -81.5640 256° West 434 499 36,000  Level FlightAware
12:00AM 38.3797 -81.6217 256° West 434 499 36,000  Level FlightAware ADS-B
12:00AM 38.3623 -81.7076 256° West 434 499 36,000  Level FlightAware ADS-B
12:01AM 38.3496 -81.7660 255° West 432 497 36,000  Level FlightAware ADS-B
12:01AM 38.3286 -81.8456 251° West 429 494 36,000  Level FlightAware ADS-B
12:02AM 38.3084 -81.9184 251° West 428 493 36,000  Level FlightAware ADS-B
12:02AM 38.2866 -81.9957 250° West 428 493 36,000  Level FlightAware ADS-B
12:03AM 38.2614 -82.0846 250° West 427 491 36,000  Level FlightAware ADS-B
12:04AM 38.2414 -82.1554 250° West 426 490 36,000  Level FlightAware ADS-B
12:04AM 38.2189 -82.2350 250° West 425 489 36,000  Level FlightAware ADS-B
12:05AM 38.1963 -82.3147 250° West 424 488 36,000  Level FlightAware ADS-B
12:05AM 38.1760 -82.3861 250° West 424 488 36,000  Level FlightAware ADS-B
12:06AM 38.1559 -82.4561 250° West 424 488 36,000  Level FlightAware ADS-B
12:06AM 38.1356 -82.5271 250° West 425 489 36,000  Level FlightAware ADS-B
12:07AM 38.1152 -82.5981 250° West 425 489 36,000  Level FlightAware ADS-B
12:07AM 38.0954 -82.6695 251° West 427 491 36,000  Level FlightAware ADS-B
12:08AM 38.0824 -82.7247 253° West 429 494 36,000  Level FlightAware ADS-B
12:08AM 38.0677 -82.7983 256° West 431 496 36,000  Level FlightAware ADS-B
12:09AM 38.0460 -82.9185 257° West 432 497 36,000  Level FlightAware ADS-B
12:10AM 38.0260 -83.0320 257° West 432 497 36,000  Level FlightAware
12:10AM 38.0105 -83.1169 257° West 432 497 36,000  Level FlightAware ADS-B
12:11AM 37.9842 -83.2588 257° West 432 497 36,000  Level FlightAware ADS-B
12:12AM 37.9699 -83.3355 257° West 433 498 36,000 -960 Level FlightAware ADS-B
12:12AM 37.9544 -83.4184 257° West 432 497 35,000 -2,340 Descending FlightAware ADS-B
12:14AM 37.9079 -83.6630 257° West 439 505 30,900 -2,460 Descending FlightAware ADS-B
12:15AM 37.8895 -83.7594 256° West 439 505 29,400 -2,400 Descending FlightAware ADS-B
12:15AM 37.8751 -83.8351 256° West 438 504 28,200 -2,400 Descending FlightAware ADS-B
12:16AM 37.8604 -83.9117 256° West 435 501 27,000 -2,220 Descending FlightAware ADS-B
12:17AM 37.8348 -84.0439 256° West 433 498 25,100 -2,280 Descending FlightAware ADS-B
12:20AM 37.7300 -84.4570 252° West 311 358 17,500 -2,220 Descending FlightAware
12:21AM 37.6970 -84.5280 240° Southwest 308 354 16,200 -1,200 Descending FlightAware
12:21AM 37.6700 -84.5850 239° Southwest 307 353 15,800 -360 Descending FlightAware
12:22AM 37.6480 -84.6320 239° Southwest 307 353 15,800  Level FlightAware
12:23AM 37.6180 -84.6950 239° Southwest 307 353 15,800  Level FlightAware
12:24AM 37.5800 -84.7730 238° Southwest 307 353 15,800  Level FlightAware
12:24AM 37.5570 -84.8220 239° Southwest 307 353 15,800 -2,040 Level FlightAware
12:27AM 37.7920 -85.1440 313° West 291 335 8,700 -2,460 Descending FlightAware
12:28AM 37.8200 -85.1820 313° West 283 326 7,600 -1,860 Descending FlightAware
12:28AM 37.8450 -85.2160 313° West 280 322 7,000 -1,320 Descending FlightAware
12:29AM 37.8630 -85.2480 305° West 280 322 6,400 -1,500 Descending FlightAware
12:29AM 37.8700 -85.2730 290° West 272 313 6,000 -1,080 Descending FlightAware
12:29AM 37.8780 -85.3000 291° West 265 305 5,800 -180 Descending FlightAware
12:30AM 37.8980 -85.3700 290° West 233 268 5,800  Level FlightAware
12:30AM 37.9080 -85.4070 289° West 234 269 5,800  Level FlightAware
12:31AM 37.9190 -85.4420 292° West 235 270 5,800  Level FlightAware
12:31AM 37.9240 -85.4580 292° West 236 272 5,800  Level FlightAware
12:32AM 37.9340 -85.4950 289° West 240 276 5,800  Level FlightAware
12:32AM 37.9420 -85.5180 294° West 241 277 5,800  Level FlightAware
12:32AM 37.9510 -85.5300 314° West 246 283 5,800 240 Level FlightAware
12:32AM 37.9620 -85.5360 337° Northwest 248 285 5,900  Climbing FlightAware
12:33AM 37.9820 -85.5460 338° Northwest 248 285 5,800 -180 Descending FlightAware
12:33AM 38.0100 -85.5580 341° North 247 284 5,800  Level FlightAware
12:33AM 38.0430 -85.5700 344° North 247 284 5,800  Level FlightAware
12:34AM 38.0690 -85.5800 343° North 248 285 5,800  Level FlightAware
12:34AM 38.0970 -85.5900 344° North 249 287 5,800  Level FlightAware
12:35AM 38.1280 -85.6020 343° North 250 288 5,800  Level FlightAware
12:35AM 38.1580 -85.6130 344° North 249 287 5,800  Level FlightAware
12:36AM 38.1890 -85.6250 343° North 250 288 5,800  Level FlightAware
12:36AM 38.2110 -85.6330 344° North 251 289 5,800  Level FlightAware
12:36AM 38.2300 -85.6400 344° North 243 280 5,800 120 Level FlightAware
12:37AM 38.2580 -85.6500 344° North 228 262 5,900  Climbing FlightAware
12:37AM 38.2840 -85.6600 343° North 230 265 5,800 -120 Descending FlightAware
12:38AM 38.3130 -85.6700 345° North 228 262 5,800  Level FlightAware
12:38AM 38.3440 -85.6810 344° North 230 265 5,800  Level FlightAware
12:39AM 38.3730 -85.6910 345° North 227 261 5,800  Level FlightAware
12:39AM 38.3850 -85.6950 345° North 227 261 5,800  Level FlightAware
12:39AM 38.4110 -85.7040 345° North 228 262 5,800  Level FlightAware
12:40AM 38.4420 -85.7150 344° North 229 264 5,800  Level FlightAware
12:40AM 38.4710 -85.7260 343° North 230 265 5,800  Level FlightAware
12:41AM 38.5000 -85.7360 345° North 229 264 5,800  Level FlightAware
12:41AM 38.5200 -85.7430 345° North 229 264 5,800 -360 Level FlightAware
12:41AM 38.5500 -85.7540 344° North 227 261 5,500 -840 Descending FlightAware
12:42AM 38.5780 -85.7640 344° North 224 258 5,000 -1,020 Descending FlightAware
12:42AM 38.5910 -85.7720 334° Northwest 224 258 4,800 -600 Descending FlightAware
12:42AM 38.5960 -85.7800 309° West 214 246 4,800 300 Level FlightAware
12:43AM 38.5990 -85.7950 284° West 211 243 4,900  Climbing FlightAware
12:43AM 38.5620 -85.8310 217° Southwest 174 200 4,800 -120 Descending FlightAware
12:44AM 38.5520 -85.8350 197° South 173 199 4,800  Level FlightAware
12:44AM 38.5300 -85.8430 196° South 177 204 4,800  Level FlightAware
12:45AM 38.4970 -85.8390 175° South 177 204 4,800  Level FlightAware
12:45AM 38.4730 -85.8300 164° South 175 201 4,800  Level FlightAware
12:46AM 38.4660 -85.8270 161° South 176 203 4,800  Level FlightAware
12:46AM 38.4410 -85.8180 164° South 176 203 4,800  Level FlightAware
12:46AM 38.4210 -85.8110 165° South 176 203 4,800 -120 Level FlightAware
12:47AM 38.3990 -85.8040 166° South 179 206 4,700 -780 Descending FlightAware
12:47AM 38.3750 -85.7960 165° South 177 204 4,100 -1,080 Descending FlightAware
12:48AM 38.3550 -85.7890 165° South 175 201 3,700 -960 Descending FlightAware
12:48AM 38.3390 -85.7830 164° South 174 200 3,400 -960 Descending FlightAware
12:48AM 38.3250 -85.7780 164° South 172 198 3,100 -960 Descending FlightAware
12:49AM 38.3040 -85.7710 165° South 170 196 2,700 -900 Descending FlightAware
12:49AM 38.2820 -85.7640 166° South 160 184 2,300 -840 Descending FlightAware
12:50AM 38.2680 -85.7590 164° South 143 165 2,000 -780 Descending FlightAware
12:50AM 38.2470 -85.7520 165° South 126 145 1,600 -720 Descending FlightAware
12:51AM 38.2330 -85.7470 164° South 126 145 1,300 -720 Descending FlightAware
12:51AM 38.2160 -85.7410 165° South 125 144 1,000 -720 Descending FlightAware
12:52AM 38.2070 -85.7380 165° South 130 150 800 -720 Descending FlightAware
12:52AM 38.1910 -85.7330 166° South 132 152 500 -660 Descending FlightAware
12:52AM 38.1760 -85.7270 163° South 96 110 -1,080 Descending FlightAware
12:53AM 38.1710 -85.7260 171° South 39 45  Level FlightAware
12:54AM 38.1720 -85.7280 302° West 16 18  Level FlightAware
12:55AM 38.1740 -85.7280 360° North 17 20  Level FlightAware
12:55AM 38.1750 -85.7310 293° West 21 24  Level FlightAware
12:56AM 38.1760 -85.7350 288° West 25 29  Level FlightAware
12:56AM 38.1780 -85.7400 297° West 27 31  Level FlightAware
12:57AM 38.1770 -85.7430 247° West 15 17  Level FlightAware
12:57AM 38.1760 -85.7430 180° South 18 21  Level FlightAware
12:58AM 38.1730 -85.7420 165° South 24 28  Level FlightAware